Marion, WI

5:10 AM CDT on August 29, 2015 (GMT -0500)
Clintonville Municipal | | Change Station
CLOSE
Current Station
Airport
Location: Clintonville,
Elevation: 823 ft
Nearby Weather Stations

Elev 823 ft 44.62 °N, 88.73 °W | Updated 15 minutes ago

Rain
Rain
55 °F
Feels Like 55 °F
N
0
Wind Variable Wind from North

Today
High -- | Low -- °F
--% Chance of Precip.
Yesterday
High -- | Low -- °F
Precip. -- in
6:14 AM 7:38 PM
Full, 100% visible
Pressure 30.08 in
Visibility 4.0 miles
Clouds Mostly Cloudy 400 ft
Mostly Cloudy 1300 ft
Overcast 3200 ft
Dew Point 55 °F
Humidity 100%
Rainfall 0.12 in
Snow Depth Not available.
UV 0 out of 12
Pollen 5.00 out of 12
Air Quality Not available.
Flu Activity Not available.
METAR KCLI 290955Z AUTO 00000KT 4SM +DZ BKN004 BKN013 OVC032 13/13 A3008 RMK AO2 P0003
Pressure 30.08 in
Visibility 4.0 miles
Clouds Mostly Cloudy 400 ft
Mostly Cloudy 1300 ft
Overcast 3200 ft
Dew Point 55 °F
Humidity 100%
Rainfall 0.12 in
Snow Depth Not available.
UV 0 out of 12
Pollen 5.00 out of 12
Air Quality Not available.
Flu Activity Not available.
METAR KCLI 290955Z AUTO 00000KT 4SM +DZ BKN004 BKN013 OVC032 13/13 A3008 RMK AO2 P0003

10-Day Weather Forecast

×

Almanac

Astronomy

Aug. 29, 2015 Rise Set
Actual Time
Civil Twilight
Nautical Twilight
Astronomical Twilight
Moon
Length of Visible Light
Length of Day
Tomorrow will be .
, % of the Moon is Illuminated

Today's Extremes

State Highs State Lows

Community

WunderPhotos

Upload Photos

1,850,633 photos uploaded!

WunderBlogs® & News

Nearby

Air Quality

  Air Quality AQ Index Pollutant
Not available.

Snow Depth

Station Depth Elevation

Earthquake Activity

City Distance Mag. Time & Date
Minimum magnitude displayed is 2.5.

Coastal Water Temperatures

Place Temperature

Stations

Nearby Weather Stations

Station Location Temp. Windchill Dew Point Humidity Wind Precip. Elev Updated Type